Time;durP1;ratioP1;P1;durP2;ratioP2;P2;SDS_P1;SDS_P2;PMS_P1;PMS_P2;Temp;Humidity;BMP_temperature;BMP_pressure;BME280_temperature;BME280_humidity;BME280_pressure;Samples;Min_cycle;Max_cycle;Signal;HPM_P1;HPM_P2
2021/12/05 00:17:08;;;;;;;13.27;2.92;;;4.50;99.90;;;;;;5074746;28;20513;-67
2021/12/05 00:22:35;;;;;;;9.45;2.58;;;4.50;99.90;;;;;;5063254;28;20036;-68
2021/12/05 00:25:04;;;;;;;10.45;2.92;;;4.50;99.90;;;;;;5073179;28;20469;-67
2021/12/05 00:27:35;;;;;;;11.88;3.03;;;4.50;99.90;;;;;;5074248;28;20029;-68
2021/12/05 00:33:07;;;;;;;8.68;2.47;;;4.50;99.90;;;;;;5074253;28;20027;-67
2021/12/05 00:55:02;;;;;;;14.38;2.95;;;4.50;99.90;;;;;;5073784;28;20420;-67
2021/12/05 01:09:00;;;;;;;11.45;2.83;;;4.70;99.90;;;;;;5073422;28;20070;-67
2021/12/05 01:11:47;;;;;;;13.27;3.38;;;4.70;99.90;;;;;;5071512;28;20024;-67
2021/12/05 01:16:44;;;;;;;8.57;2.40;;;4.60;99.90;;;;;;5073096;28;20025;-67
2021/12/05 01:19:11;;;;;;;16.30;3.10;;;4.60;99.90;;;;;;5072045;28;20024;-67
2021/12/05 01:21:39;;;;;;;12.43;3.22;;;4.60;99.90;;;;;;5073147;28;20657;-67
2021/12/05 01:24:40;;;;;;;13.50;2.97;;;4.60;99.90;;;;;;5073297;28;20048;-67
2021/12/05 01:30:05;;;;;;;12.90;2.72;;;4.60;99.90;;;;;;5073360;28;20055;-67
2021/12/05 01:33:01;;;;;;;9.70;2.88;;;4.60;99.90;;;;;;5071576;28;20489;-66
2021/12/05 01:44:11;;;;;;;16.30;2.72;;;4.60;99.90;;;;;;5049851;28;20024;-67
2021/12/05 01:49:26;;;;;;;13.10;2.55;;;4.50;99.90;;;;;;5072966;28;20024;-67
2021/12/05 01:57:31;;;;;;;17.17;2.78;;;4.40;99.90;;;;;;5073101;28;20484;-67
2021/12/05 02:10:57;;;;;;;15.55;3.90;;;4.30;99.90;;;;;;5072750;28;20066;-67
2021/12/05 02:30:14;;;;;;;15.25;3.92;;;4.00;99.90;;;;;;5076501;28;20039;-68
2021/12/05 02:33:04;;;;;;;19.13;4.30;;;4.00;99.90;;;;;;5076371;28;20017;-67
2021/12/05 02:43:29;;;;;;;9.65;3.67;;;3.80;99.90;;;;;;5076388;28;20051;-67
2021/12/05 02:45:58;;;;;;;16.30;3.95;;;3.70;99.90;;;;;;5076147;28;20036;-67
2021/12/05 02:48:27;;;;;;;14.43;4.18;;;3.70;99.90;;;;;;5076417;28;20031;-67
2021/12/05 02:50:53;;;;;;;12.95;3.55;;;3.70;99.90;;;;;;5076089;28;20017;-68
2021/12/05 02:53:27;;;;;;;14.50;3.92;;;3.70;99.90;;;;;;5076008;28;20094;-67
2021/12/05 02:55:52;;;;;;;14.18;3.33;;;3.70;99.90;;;;;;5075917;28;20020;-67
2021/12/05 03:03:19;;;;;;;16.07;4.10;;;3.70;99.90;;;;;;5076237;28;20025;-67
2021/12/05 03:05:50;;;;;;;11.95;3.08;;;3.60;99.90;;;;;;5074463;28;20639;-67
2021/12/05 03:08:16;;;;;;;12.88;3.30;;;3.60;99.90;;;;;;5075895;28;20446;-68
2021/12/05 03:10:43;;;;;;;10.25;3.10;;;3.60;99.90;;;;;;5075574;28;20543;-67
2021/12/05 03:13:08;;;;;;;13.50;3.58;;;3.60;99.90;;;;;;5075775;28;20021;-67
2021/12/05 03:15:34;;;;;;;12.70;3.60;;;3.60;99.90;;;;;;5075628;28;20029;-67
2021/12/05 03:18:00;;;;;;;15.82;3.13;;;3.60;99.90;;;;;;5075460;28;20024;-68
2021/12/05 03:20:25;;;;;;;17.50;4.07;;;3.50;99.90;;;;;;5075647;28;20496;-67
2021/12/05 03:22:51;;;;;;;13.50;3.45;;;3.50;99.90;;;;;;5075561;28;20361;-67
2021/12/05 03:25:17;;;;;;;16.10;3.70;;;3.50;99.90;;;;;;5075501;28;20026;-67
2021/12/05 03:27:43;;;;;;;15.32;3.97;;;3.50;99.90;;;;;;5074122;28;20078;-67
2021/12/05 03:30:12;;;;;;;18.23;3.88;;;3.50;99.90;;;;;;5075463;28;20021;-67
2021/12/05 03:32:38;;;;;;;15.60;4.07;;;3.50;99.90;;;;;;5074071;28;20024;-67
2021/12/05 03:35:07;;;;;;;10.35;2.88;;;3.50;99.90;;;;;;5074471;28;20070;-67
2021/12/05 03:37:33;;;;;;;19.27;3.65;;;3.50;99.90;;;;;;5075231;28;20056;-68
2021/12/05 03:39:58;;;;;;;12.15;3.30;;;3.50;99.90;;;;;;5074018;28;20071;-67
2021/12/05 03:42:24;;;;;;;18.88;4.13;;;3.50;99.90;;;;;;5073832;28;20060;-68
2021/12/05 03:44:50;;;;;;;15.52;3.15;;;3.50;99.90;;;;;;5075010;28;20060;-67
2021/12/05 03:47:16;;;;;;;14.02;2.90;;;3.50;99.90;;;;;;5075154;28;20028;-68
2021/12/05 03:49:42;;;;;;;12.05;3.13;;;3.50;99.90;;;;;;5074778;28;20509;-67
2021/12/05 03:52:12;;;;;;;11.00;3.28;;;3.60;99.90;;;;;;5074968;28;20155;-67
2021/12/05 03:54:40;;;;;;;15.80;3.80;;;3.60;99.90;;;;;;5074889;28;20465;-66
2021/12/05 03:57:06;;;;;;;17.33;4.03;;;3.60;99.90;;;;;;5075048;28;20031;-67
2021/12/05 03:59:32;;;;;;;10.05;3.42;;;3.60;99.90;;;;;;5073471;28;20029;-67
2021/12/05 04:02:00;;;;;;;16.92;3.80;;;3.60;99.90;;;;;;5074898;28;20504;-67
2021/12/05 04:04:26;;;;;;;10.10;2.95;;;3.60;99.90;;;;;;5074798;28;20036;-67
2021/12/05 04:06:52;;;;;;;12.60;4.25;;;3.70;99.90;;;;;;5074685;28;20048;-67
2021/12/05 04:09:19;;;;;;;14.98;3.58;;;3.70;99.90;;;;;;5073587;28;20028;-67
2021/12/05 04:11:56;;;;;;;13.70;3.58;;;3.60;99.90;;;;;;5074555;28;20016;-67
2021/12/05 04:14:23;;;;;;;13.63;3.80;;;3.70;99.90;;;;;;5073403;28;20373;-67
2021/12/05 04:16:49;;;;;;;16.50;4.13;;;3.70;99.90;;;;;;5074499;28;20119;-67
2021/12/05 04:19:15;;;;;;;15.15;4.00;;;3.70;99.90;;;;;;5074381;28;20123;-67
2021/12/05 04:21:40;;;;;;;15.02;3.50;;;3.70;99.90;;;;;;5074627;28;20036;-67
2021/12/05 04:24:08;;;;;;;18.77;3.40;;;3.80;99.90;;;;;;5073175;28;20086;-67
2021/12/05 04:26:34;;;;;;;10.27;3.65;;;3.80;99.90;;;;;;5072975;28;20028;-67
2021/12/05 04:29:00;;;;;;;13.18;3.50;;;3.80;99.90;;;;;;5074492;28;20536;-67
2021/12/05 04:31:26;;;;;;;11.18;3.58;;;3.80;99.90;;;;;;5074086;28;20080;-67
2021/12/05 04:33:52;;;;;;;14.98;4.85;;;3.90;99.90;;;;;;5074069;28;20451;-67
2021/12/05 04:36:18;;;;;;;13.02;3.33;;;3.90;99.90;;;;;;5074117;28;20484;-67
2021/12/05 04:38:45;;;;;;;11.00;3.60;;;3.90;99.90;;;;;;5072807;28;20515;-67
2021/12/05 04:41:10;;;;;;;16.67;4.22;;;3.90;99.90;;;;;;5074081;28;20051;-67
2021/12/05 04:43:39;;;;;;;14.02;3.95;;;3.90;99.90;;;;;;5072534;28;20473;-67
2021/12/05 04:46:09;;;;;;;12.90;3.92;;;3.90;99.90;;;;;;5072900;28;20063;-67
2021/12/05 04:48:34;;;;;;;;;;;3.90;99.90;;;;;;5074259;28;20017;-67
2021/12/05 04:51:01;;;;;;;14.38;4.57;;;3.90;99.90;;;;;;5073754;28;19912;-67
2021/12/05 04:53:28;;;;;;;12.68;4.07;;;3.90;99.90;;;;;;5073797;28;20032;-67
2021/12/05 04:55:55;;;;;;;18.73;5.10;;;3.90;99.90;;;;;;5072488;28;20028;-68
2021/12/05 04:58:21;;;;;;;10.93;3.80;;;4.00;99.90;;;;;;5072475;28;20031;-67
2021/12/05 05:00:47;;;;;;;9.98;4.35;;;4.00;99.90;;;;;;5072303;28;20123;-67
2021/12/05 05:03:14;;;;;;;12.18;4.78;;;4.00;99.90;;;;;;5073593;28;20107;-67
2021/12/05 05:05:49;;;;;;;8.77;3.97;;;4.10;99.90;;;;;;5071975;28;20028;-67
2021/12/05 05:08:16;;;;;;;13.55;4.63;;;4.10;99.90;;;;;;5073550;28;20044;-67
2021/12/05 05:10:41;;;;;;;11.82;5.00;;;4.10;99.90;;;;;;5073421;28;20036;-67
2021/12/05 05:13:07;;;;;;;14.07;4.97;;;4.10;99.90;;;;;;5073470;28;20028;-67
2021/12/05 05:15:33;;;;;;;13.75;6.20;;;4.10;99.90;;;;;;5073328;28;20078;-67
2021/12/05 05:18:00;;;;;;;17.75;5.18;;;4.20;99.90;;;;;;5073326;28;20021;-67
2021/12/05 05:20:35;;;;;;;9.68;4.45;;;4.20;99.90;;;;;;5073156;28;20111;-67
2021/12/05 05:28:38;;;;;;;9.95;4.47;;;4.20;99.90;;;;;;5073866;28;20024;-67
2021/12/05 05:39:14;;;;;;;12.77;4.93;;;4.20;99.90;;;;;;5073224;28;20048;-67
2021/12/05 05:40:10;;;;;;;10.88;4.22;;;4.30;99.90;;;;;;5072908;28;20074;-67
2021/12/05 05:48:00;;;;;;;8.50;3.47;;;4.40;99.90;;;;;;5072877;28;20071;-68
2021/12/05 05:50:25;;;;;;;7.57;3.53;;;4.40;99.90;;;;;;5071636;28;20028;-68
2021/12/05 05:52:51;;;;;;;8.23;4.10;;;4.40;99.90;;;;;;5072692;28;20029;-67
2021/12/05 05:55:16;;;;;;;7.18;3.63;;;4.50;99.90;;;;;;5072747;28;20548;-67
2021/12/05 05:58:09;;;;;;;5.75;3.40;;;4.40;99.90;;;;;;5072407;28;20035;-67
2021/12/05 06:00:37;;;;;;;11.88;3.70;;;4.40;99.90;;;;;;5072477;28;20058;-67
2021/12/05 06:03:20;;;;;;;8.32;3.83;;;4.50;99.90;;;;;;5072133;28;20025;-67
2021/12/05 06:05:46;;;;;;;7.25;3.88;;;4.50;99.90;;;;;;5070484;28;20112;-67
2021/12/05 06:08:13;;;;;;;9.85;4.13;;;4.50;99.90;;;;;;5071538;28;20070;-68
2021/12/05 06:10:39;;;;;;;8.85;4.03;;;4.50;99.90;;;;;;5072239;28;20476;-67
2021/12/05 06:13:05;;;;;;;9.23;2.85;;;4.50;99.90;;;;;;5071352;28;20369;-67
2021/12/05 06:15:30;;;;;;;10.13;3.55;;;4.50;99.90;;;;;;5072618;28;20052;-67
2021/12/05 06:17:56;;;;;;;10.15;3.80;;;4.50;99.90;;;;;;5072335;28;20029;-67
2021/12/05 06:20:26;;;;;;;6.80;3.30;;;4.50;99.90;;;;;;5072337;28;20037;-66
2021/12/05 06:22:53;;;;;;;9.82;3.85;;;4.50;99.90;;;;;;5071085;28;20033;-67
2021/12/05 06:25:23;;;;;;;8.30;3.70;;;4.50;99.90;;;;;;5072606;28;20481;-67
2021/12/05 06:28:01;;;;;;;6.90;3.72;;;4.50;99.90;;;;;;5072487;28;20061;-67
2021/12/05 06:48:51;;;;;;;5.65;3.15;;;4.50;99.90;;;;;;5072711;28;20036;-67
2021/12/05 06:51:20;;;;;;;10.20;3.33;;;4.50;99.90;;;;;;5072073;28;20082;-67
2021/12/05 06:53:47;;;;;;;5.28;3.40;;;4.50;99.90;;;;;;5071845;28;20029;-67
2021/12/05 06:56:13;;;;;;;4.22;2.60;;;4.50;99.90;;;;;;5070631;28;20029;-67
2021/12/05 06:58:39;;;;;;;6.65;3.25;;;4.50;99.90;;;;;;5072183;28;20056;-67
2021/12/05 07:01:09;;;;;;;6.28;3.28;;;4.50;99.90;;;;;;5072305;28;20068;-67
2021/12/05 07:03:37;;;;;;;4.63;2.95;;;4.50;99.90;;;;;;5072100;28;20484;-67
2021/12/05 07:06:19;;;;;;;3.35;2.83;;;4.50;99.90;;;;;;5071890;28;20054;-67
2021/12/05 07:08:46;;;;;;;4.95;2.65;;;4.50;99.90;;;;;;5072269;28;20068;-67
2021/12/05 07:11:20;;;;;;;3.17;2.13;;;4.50;99.90;;;;;;5075802;28;20098;-67
2021/12/05 07:16:20;;;;;;;4.38;2.22;;;4.40;99.90;;;;;;5076048;28;20032;-68
2021/12/05 07:19:07;;;;;;;5.45;2.30;;;4.40;99.90;;;;;;5074340;28;20032;-67
2021/12/05 07:21:40;;;;;;;2.97;1.95;;;4.40;99.90;;;;;;5074370;28;20434;-67
2021/12/05 07:24:16;;;;;;;2.75;1.75;;;4.40;99.90;;;;;;5075652;28;20024;-67
2021/12/05 07:40:24;;;;;;;2.33;1.80;;;4.30;99.90;;;;;;5055525;28;20159;-67
2021/12/05 07:42:51;;;;;;;4.88;2.50;;;4.30;99.90;;;;;;5054807;28;20052;-67
2021/12/05 07:45:22;;;;;;;2.10;1.90;;;4.30;99.90;;;;;;5073982;28;20378;-67
2021/12/05 07:47:51;;;;;;;2.65;1.80;;;4.20;99.90;;;;;;5075031;28;20024;-68
2021/12/05 07:50:20;;;;;;;3.28;2.60;;;4.20;99.90;;;;;;5074651;28;20062;-67
2021/12/05 07:53:07;;;;;;;3.67;2.13;;;4.30;99.90;;;;;;5073200;28;20020;-67
2021/12/05 07:55:39;;;;;;;4.75;2.75;;;4.20;99.90;;;;;;5073496;28;20036;-67
2021/12/05 07:58:28;;;;;;;3.47;2.70;;;4.20;99.90;;;;;;5074651;28;20391;-67
2021/12/05 08:01:21;;;;;;;4.05;2.65;;;4.20;99.90;;;;;;5074203;28;20103;-67
2021/12/05 08:15:18;;;;;;;5.35;3.55;;;4.20;99.90;;;;;;5073053;28;20047;-67
2021/12/05 08:17:51;;;;;;;5.32;4.00;;;4.20;99.90;;;;;;5070001;28;20017;-67
2021/12/05 08:20:20;;;;;;;4.50;3.92;;;4.20;99.90;;;;;;5068793;28;20116;-67
2021/12/05 08:22:46;;;;;;;6.63;3.55;;;4.20;99.90;;;;;;5071488;28;20540;-67
2021/12/05 08:25:13;;;;;;;3.92;3.40;;;4.20;99.90;;;;;;5072887;28;20115;-67
2021/12/05 08:27:44;;;;;;;4.35;3.50;;;4.20;99.90;;;;;;5074288;28;20392;-67
2021/12/05 08:30:14;;;;;;;6.22;3.28;;;4.20;99.90;;;;;;5074177;28;20025;-67
2021/12/05 08:35:17;;;;;;;9.75;3.72;;;4.20;99.90;;;;;;5073628;28;20052;-67
2021/12/05 08:43:38;;;;;;;6.63;4.60;;;4.20;99.90;;;;;;5012204;28;20647;-67
2021/12/05 09:25:12;;;;;;;6.55;4.82;;;4.40;99.90;;;;;;5053243;28;20159;-67
2021/12/05 09:30:36;;;;;;;7.15;5.05;;;4.50;99.90;;;;;;5072741;28;20103;-67
2021/12/05 10:38:07;;;;;;;7.97;5.68;;;4.80;99.90;;;;;;5072520;28;20044;-67
2021/12/05 10:47:42;;;;;;;7.50;6.20;;;4.70;99.90;;;;;;4956858;28;20050;-67
2021/12/05 10:50:34;;;;;;;6.15;5.55;;;4.70;99.90;;;;;;5029074;28;20036;-67
2021/12/05 10:53:23;;;;;;;9.18;7.63;;;4.80;99.90;;;;;;5075810;28;20023;-67
2021/12/05 10:56:00;;;;;;;9.65;7.93;;;4.70;99.90;;;;;;5074518;28;20563;-67
2021/12/05 10:58:33;;;;;;;10.93;7.05;;;4.70;99.90;;;;;;5075929;28;20028;-67
2021/12/05 11:01:05;;;;;;;10.02;7.47;;;4.70;99.90;;;;;;5075924;28;20384;-67
2021/12/05 11:03:31;;;;;;;9.85;7.22;;;4.60;99.90;;;;;;5075070;28;20082;-67
2021/12/05 11:05:57;;;;;;;10.38;6.93;;;4.60;99.90;;;;;;5073165;28;20017;-66
2021/12/05 11:08:49;;;;;;;8.13;7.03;;;4.60;99.90;;;;;;5054323;28;20106;-66
2021/12/05 11:11:17;;;;;;;10.57;7.15;;;4.70;99.90;;;;;;5065462;28;20108;-67
2021/12/05 11:13:44;;;;;;;8.20;7.35;;;4.60;99.90;;;;;;5073965;28;20017;-68
2021/12/05 11:17:02;;;;;;;;;;;;;;;;;;;;;
2021/12/05 11:20:28;;;;;;;8.68;7.78;;;4.70;99.90;;;;;;5072654;28;20032;-67
2021/12/05 11:22:54;;;;;;;9.60;8.07;;;4.70;99.90;;;;;;5033629;28;20029;-67
2021/12/05 11:25:43;;;;;;;;;;;;;;;;;;;;;
2021/12/05 11:28:37;;;;;;;10.30;8.75;;;4.70;99.90;;;;;;5066111;28;20036;-66
2021/12/05 11:31:02;;;;;;;11.60;8.50;;;4.80;99.90;;;;;;5063634;28;20043;-67
2021/12/05 11:33:28;;;;;;;12.43;8.93;;;4.80;99.90;;;;;;5074135;28;20020;-67
2021/12/05 11:35:56;;;;;;;12.32;9.18;;;4.90;99.90;;;;;;5073907;28;20016;-67
2021/12/05 11:38:24;;;;;;;11.32;8.70;;;4.90;99.90;;;;;;5075443;28;20111;-67
2021/12/05 11:41:06;;;;;;;10.52;9.23;;;4.90;99.90;;;;;;5075158;28;20027;-67
2021/12/05 11:44:27;;;;;;;10.85;8.45;;;4.90;99.90;;;;;;5073079;28;20074;-66
2021/12/05 11:46:53;;;;;;;9.73;8.73;;;4.90;99.90;;;;;;5057898;28;20384;-67
2021/12/05 11:49:39;;;;;;;9.70;7.85;;;5.00;99.90;;;;;;5074155;28;20504;-66
2021/12/05 11:52:05;;;;;;;11.35;9.00;;;5.00;99.90;;;;;;5073676;28;20107;-66
2021/12/05 11:54:46;;;;;;;12.50;8.35;;;5.00;99.90;;;;;;5072553;28;20508;-66
2021/12/05 11:57:16;;;;;;;8.93;7.20;;;5.00;99.90;;;;;;5071969;28;20109;-66
2021/12/05 11:59:46;;;;;;;9.32;8.05;;;5.10;99.90;;;;;;5074680;28;20166;-67
2021/12/05 12:02:15;;;;;;;8.23;7.40;;;5.10;99.90;;;;;;5073331;28;20043;-67
2021/12/05 12:04:49;;;;;;;8.25;6.93;;;5.00;99.90;;;;;;5072907;28;20017;-67
2021/12/05 12:11:18;;;;;;;9.82;7.22;;;5.00;99.90;;;;;;5060399;28;20070;-67
2021/12/05 12:13:46;;;;;;;8.75;7.47;;;5.00;99.90;;;;;;5067915;28;20036;-67
2021/12/05 12:16:13;;;;;;;9.68;8.23;;;5.00;99.90;;;;;;5068320;28;20020;-67
2021/12/05 12:28:36;;;;;;;7.72;6.93;;;5.10;99.90;;;;;;4992255;28;20041;-67
2021/12/05 12:31:28;;;;;;;7.57;6.53;;;5.10;99.90;;;;;;4985506;28;20504;-67
2021/12/05 12:34:00;;;;;;;6.95;6.10;;;5.10;99.90;;;;;;5071346;28;20123;-67
2021/12/05 12:37:19;;;;;;;;;;;;;;;;;;;;;
2021/12/05 12:39:48;;;;;;;6.10;5.50;;;5.30;99.90;;;;;;5010389;28;20029;-67
2021/12/05 12:42:20;;;;;;;7.13;5.88;;;5.30;99.90;;;;;;5010242;28;20303;-67
2021/12/05 12:45:52;;;;;;;8.05;5.88;;;5.30;99.90;;;;;;5045707;28;20464;-67
2021/12/05 12:48:18;;;;;;;6.85;6.10;;;5.40;99.90;;;;;;5064561;28;20534;-67
2021/12/05 12:50:51;;;;;;;6.80;6.10;;;5.40;99.90;;;;;;5073957;28;20044;-67
2021/12/05 12:53:43;;;;;;;8.10;5.80;;;5.40;99.90;;;;;;5073824;28;20024;-67
2021/12/05 12:56:19;;;;;;;5.82;5.22;;;5.50;99.90;;;;;;5068955;28;20106;-67
2021/12/05 12:58:49;;;;;;;5.75;4.55;;;5.40;99.90;;;;;;5053719;28;20691;-67
2021/12/05 13:04:30;;;;;;;5.15;4.25;;;5.40;99.90;;;;;;5053925;28;20033;-67
2021/12/05 13:07:24;;;;;;;5.32;4.18;;;5.40;99.90;;;;;;5054392;28;20057;-67
2021/12/05 13:10:08;;;;;;;4.55;3.95;;;5.40;99.90;;;;;;5054377;28;20025;-67
2021/12/05 13:12:59;;;;;;;4.53;3.67;;;5.30;99.90;;;;;;5072100;28;20020;-67
2021/12/05 13:15:39;;;;;;;4.60;3.78;;;5.40;99.90;;;;;;5058760;28;20492;-67
2021/12/05 13:18:23;;;;;;;4.35;3.80;;;5.40;99.90;;;;;;5058826;28;20116;-67
2021/12/05 13:20:56;;;;;;;4.45;4.05;;;5.40;99.90;;;;;;5051955;28;20156;-66
2021/12/05 13:23:27;;;;;;;5.72;4.60;;;5.40;99.90;;;;;;5064690;28;20711;-67
2021/12/05 13:25:57;;;;;;;7.03;4.30;;;5.40;99.90;;;;;;5072708;28;20028;-67
2021/12/05 13:28:33;;;;;;;;;;;5.40;99.90;;;;;;5053745;28;20044;-67
2021/12/05 13:31:19;;;;;;;8.52;5.10;;;5.40;99.90;;;;;;5061933;28;19908;-67
2021/12/05 13:33:45;;;;;;;6.57;4.63;;;5.30;99.90;;;;;;5072262;28;20103;-67
2021/12/05 13:36:32;;;;;;;6.95;5.55;;;5.40;99.90;;;;;;5072364;28;20115;-67
2021/12/05 13:38:58;;;;;;;5.93;5.32;;;5.40;99.90;;;;;;5072985;28;20028;-67
2021/12/05 13:41:24;;;;;;;6.70;6.00;;;5.40;99.90;;;;;;5072680;28;20392;-67
2021/12/05 13:43:58;;;;;;;5.97;4.82;;;5.40;99.90;;;;;;5069339;28;20040;-67
2021/12/05 13:46:34;;;;;;;5.82;4.60;;;5.40;99.90;;;;;;5063260;28;20431;-67
2021/12/05 13:49:02;;;;;;;6.35;4.03;;;5.40;99.90;;;;;;5069634;28;20495;-67
2021/12/05 13:51:28;;;;;;;4.07;3.67;;;5.40;99.90;;;;;;5071488;28;20028;-67
2021/12/05 13:53:59;;;;;;;4.90;3.13;;;5.40;99.90;;;;;;5071053;28;20016;-67
2021/12/05 13:56:26;;;;;;;2.58;2.08;;;5.40;99.90;;;;;;5067011;28;20060;-67
2021/12/05 13:59:05;;;;;;;2.38;2.17;;;5.40;99.90;;;;;;5068781;28;20028;-67
2021/12/05 14:01:44;;;;;;;2.50;2.05;;;5.40;99.90;;;;;;5069528;28;20368;-67
2021/12/05 14:04:10;;;;;;;3.17;2.28;;;5.40;99.90;;;;;;5068611;28;20064;-67
2021/12/05 14:07:09;;;;;;;3.58;3.03;;;5.40;99.90;;;;;;5069143;28;20056;-67
2021/12/05 14:09:36;;;;;;;2.92;2.45;;;5.40;99.90;;;;;;5068722;28;20029;-67
2021/12/05 14:12:41;;;;;;;3.90;3.00;;;5.40;99.90;;;;;;5068657;28;20522;-67
2021/12/05 14:15:08;;;;;;;3.65;2.67;;;5.40;99.90;;;;;;5067638;28;20025;-67
2021/12/05 14:17:37;;;;;;;5.05;2.90;;;5.40;99.90;;;;;;5071002;28;20162;-67
2021/12/05 14:20:05;;;;;;;3.80;3.08;;;5.40;99.90;;;;;;5071313;28;20507;-67
2021/12/05 14:22:33;;;;;;;3.97;2.35;;;5.40;99.90;;;;;;5071292;28;20457;-67
2021/12/05 14:25:02;;;;;;;4.45;2.10;;;5.40;99.90;;;;;;5072402;28;20032;-67
2021/12/05 14:27:31;;;;;;;2.90;2.60;;;5.40;99.90;;;;;;5072186;28;20035;-67
2021/12/05 14:29:59;;;;;;;3.55;2.10;;;5.40;99.90;;;;;;5072545;28;20027;-67
2021/12/05 14:32:34;;;;;;;2.63;2.20;;;5.40;99.90;;;;;;5068934;28;20040;-67
2021/12/05 14:35:08;;;;;;;2.53;2.25;;;5.40;99.90;;;;;;5056609;28;20029;-67
2021/12/05 14:37:35;;;;;;;2.28;1.98;;;5.40;99.90;;;;;;5062051;28;20082;-67
2021/12/05 14:40:05;;;;;;;1.77;1.60;;;5.40;99.90;;;;;;5064642;28;20047;-67
2021/12/05 14:42:34;;;;;;;2.25;1.70;;;5.50;99.90;;;;;;5066335;28;20066;-68
2021/12/05 14:45:09;;;;;;;2.17;1.20;;;5.60;99.90;;;;;;5062925;28;20111;-67
2021/12/05 14:50:40;;;;;;;1.90;1.40;;;5.70;99.90;;;;;;5058118;28;20036;-67
2021/12/05 14:53:10;;;;;;;1.70;1.60;;;5.70;99.90;;;;;;5063534;28;20031;-67
2021/12/05 14:55:36;;;;;;;;;;;5.80;99.90;;;;;;5068703;28;20024;-67
2021/12/05 14:58:05;;;;;;;2.10;1.42;;;5.80;99.90;;;;;;5075156;28;19909;-67
2021/12/05 15:00:40;;;;;;;1.98;1.75;;;5.70;99.90;;;;;;5064663;28;20367;-67
2021/12/05 15:03:13;;;;;;;1.77;1.48;;;5.70;99.90;;;;;;5070236;28;20079;-67
2021/12/05 15:05:40;;;;;;;2.65;1.88;;;5.80;99.90;;;;;;5071180;28;20021;-67
2021/12/05 15:08:20;;;;;;;2.53;1.90;;;5.80;99.90;;;;;;5070461;28;20043;-67
2021/12/05 15:10:53;;;;;;;2.97;1.95;;;5.80;99.90;;;;;;5071141;28;20067;-67
2021/12/05 15:13:18;;;;;;;2.03;1.67;;;5.80;99.90;;;;;;5068588;28;20024;-67
2021/12/05 15:15:45;;;;;;;2.05;1.13;;;5.80;99.90;;;;;;5071806;28;20025;-67
2021/12/05 15:18:16;;;;;;;2.13;1.75;;;5.80;99.90;;;;;;5071771;28;20054;-67
2021/12/05 15:20:46;;;;;;;2.00;1.50;;;5.80;99.90;;;;;;5071548;28;20119;-67
2021/12/05 15:23:12;;;;;;;2.00;1.73;;;5.90;99.90;;;;;;5071621;28;20178;-68
2021/12/05 15:28:49;;;;;;;1.40;1.13;;;5.90;99.90;;;;;;5068256;28;20064;-67
2021/12/05 15:31:18;;;;;;;2.20;1.30;;;5.80;99.90;;;;;;5074051;28;20056;-67
2021/12/05 15:34:00;;;;;;;2.10;1.52;;;5.90;99.90;;;;;;5075067;28;20024;-67
2021/12/05 15:36:34;;;;;;;1.85;1.27;;;5.90;99.90;;;;;;5078369;28;20016;-68
2021/12/05 15:39:11;;;;;;;1.90;1.70;;;5.90;99.90;;;;;;5092492;28;20024;-67
2021/12/05 15:41:44;;;;;;;2.78;1.38;;;5.90;99.90;;;;;;5091822;28;20119;-67
2021/12/05 15:44:09;;;;;;;1.80;1.30;;;5.90;99.90;;;;;;5073971;28;20024;-67
2021/12/05 15:46:35;;;;;;;1.80;1.50;;;5.90;99.90;;;;;;5074705;28;20039;-67
2021/12/05 15:49:04;;;;;;;1.80;1.27;;;5.90;99.90;;;;;;5070668;28;20048;-66
2021/12/05 15:51:58;;;;;;;1.70;1.42;;;5.90;99.90;;;;;;5072570;28;20415;-67
2021/12/05 15:54:24;;;;;;;2.28;1.48;;;5.90;99.90;;;;;;5074729;28;20032;-67
2021/12/05 15:57:07;;;;;;;3.53;1.77;;;5.90;99.90;;;;;;5075012;28;20036;-67
2021/12/05 15:59:38;;;;;;;2.10;1.50;;;5.90;99.90;;;;;;5072894;28;20032;-67
2021/12/05 16:02:07;;;;;;;2.83;2.05;;;5.90;99.90;;;;;;5073041;28;20142;-67
2021/12/05 16:04:32;;;;;;;2.83;2.08;;;5.90;99.90;;;;;;5073665;28;20032;-67
2021/12/05 16:07:00;;;;;;;4.03;2.53;;;5.90;99.90;;;;;;5073465;28;20035;-67
2021/12/05 16:09:27;;;;;;;3.03;2.40;;;5.90;99.90;;;;;;5073638;28;20078;-67
2021/12/05 16:12:09;;;;;;;3.42;2.67;;;5.90;99.90;;;;;;5073385;28;20051;-67
2021/12/05 16:14:52;;;;;;;3.00;2.42;;;5.90;99.90;;;;;;5073350;28;20017;-67
2021/12/05 16:17:24;;;;;;;3.20;2.60;;;5.90;99.90;;;;;;5071904;28;20599;-67
2021/12/05 16:20:06;;;;;;;4.10;3.00;;;5.90;99.90;;;;;;5072702;28;20028;-67
2021/12/05 16:22:33;;;;;;;4.47;3.50;;;5.90;99.90;;;;;;5071964;28;20032;-67
2021/12/05 16:25:15;;;;;;;5.13;4.30;;;5.90;99.90;;;;;;5071595;28;20052;-67
2021/12/05 16:27:53;;;;;;;4.60;3.65;;;5.90;99.90;;;;;;5073401;28;20031;-67
2021/12/05 16:30:25;;;;;;;3.72;3.03;;;5.90;99.90;;;;;;5073504;28;20427;-67
2021/12/05 16:32:52;;;;;;;3.35;3.05;;;5.90;99.90;;;;;;5072933;28;20113;-67
2021/12/05 16:35:34;;;;;;;4.65;3.22;;;5.80;99.90;;;;;;5071428;28;20086;-67
2021/12/05 16:38:01;;;;;;;3.55;2.90;;;5.90;99.90;;;;;;5068789;28;20044;-67
2021/12/05 16:40:50;;;;;;;3.08;2.78;;;5.90;99.90;;;;;;5068392;28;20025;-67
2021/12/05 16:43:21;;;;;;;3.88;2.85;;;5.90;99.90;;;;;;5061877;28;20087;-67
2021/12/05 16:46:17;;;;;;;3.33;2.88;;;5.90;99.90;;;;;;5060193;28;20082;-67
2021/12/05 16:48:52;;;;;;;3.42;2.65;;;5.90;99.90;;;;;;5065086;28;20399;-67
2021/12/05 16:51:37;;;;;;;3.00;2.70;;;5.90;99.90;;;;;;5062490;28;20017;-67
2021/12/05 16:54:21;;;;;;;3.40;2.80;;;5.90;99.90;;;;;;5070112;28;20024;-67
2021/12/05 16:56:58;;;;;;;3.53;3.22;;;5.90;99.90;;;;;;5068005;28;20032;-67
2021/12/05 16:59:44;;;;;;;3.90;2.92;;;5.90;99.90;;;;;;5072630;28;20028;-67
2021/12/05 17:02:22;;;;;;;3.70;3.25;;;5.90;99.90;;;;;;5073872;28;20102;-68
2021/12/05 17:05:12;;;;;;;3.58;3.15;;;5.90;99.90;;;;;;5073653;28;20021;-67
2021/12/05 17:07:46;;;;;;;;;;;5.90;99.90;;;;;;5073755;28;20062;-67
2021/12/05 17:10:34;;;;;;;;;;;;;;;;;;;;;
2021/12/05 17:13:31;;;;;;;5.13;4.20;;;5.80;99.90;;;;;;5073315;28;20508;-67
2021/12/05 17:16:03;;;;;;;4.00;3.60;;;5.80;99.90;;;;;;5073172;28;20048;-67
2021/12/05 17:18:32;;;;;;;5.40;3.80;;;5.80;99.90;;;;;;5073497;28;20028;-67
2021/12/05 17:21:03;;;;;;;4.72;3.95;;;5.80;99.90;;;;;;5073139;28;20052;-67
2021/12/05 17:23:40;;;;;;;5.10;4.05;;;5.80;99.90;;;;;;5072283;28;20094;-67
2021/12/05 17:26:10;;;;;;;4.75;4.13;;;5.80;99.90;;;;;;5073413;28;20024;-67
2021/12/05 17:28:53;;;;;;;5.43;4.70;;;5.80;99.90;;;;;;5061094;28;20024;-67
2021/12/05 17:32:06;;;;;;;;;;;;;;;;;;;;;
2021/12/05 17:34:44;;;;;;;6.22;4.90;;;5.80;99.90;;;;;;5037686;28;20047;-68
2021/12/05 17:37:48;;;;;;;5.03;4.40;;;5.80;99.90;;;;;;5052190;28;20493;-67
2021/12/05 17:40:14;;;;;;;6.13;4.47;;;5.80;99.90;;;;;;5011011;28;20046;-67
2021/12/05 17:42:41;;;;;;;5.13;4.45;;;5.70;99.90;;;;;;5010741;28;20113;-67
2021/12/05 17:45:09;;;;;;;5.03;3.92;;;5.80;99.90;;;;;;5041168;28;20114;-68
2021/12/05 17:47:35;;;;;;;4.88;4.30;;;5.80;99.90;;;;;;5052815;28;20064;-67
2021/12/05 17:50:07;;;;;;;5.10;4.25;;;5.70;99.90;;;;;;5052881;28;20026;-67
2021/12/05 17:52:33;;;;;;;4.68;4.07;;;5.80;99.90;;;;;;5062982;28;20104;-67
2021/12/05 17:55:18;;;;;;;5.10;4.18;;;5.80;99.90;;;;;;5072193;28;20067;-67
2021/12/05 17:57:51;;;;;;;4.70;3.70;;;5.80;99.90;;;;;;5052755;28;20036;-67
2021/12/05 18:00:43;;;;;;;5.78;4.18;;;5.80;99.90;;;;;;5051400;28;20025;-67
2021/12/05 18:03:12;;;;;;;5.57;4.00;;;5.80;99.90;;;;;;5052740;28;20025;-67
2021/12/05 18:05:45;;;;;;;5.53;3.83;;;5.80;99.90;;;;;;5051390;28;20047;-67
2021/12/05 18:08:14;;;;;;;5.38;3.38;;;5.80;99.90;;;;;;5052370;28;20883;-67
2021/12/05 18:10:47;;;;;;;6.60;4.40;;;5.80;99.90;;;;;;5051300;28;20029;-67
2021/12/05 18:13:13;;;;;;;5.80;4.63;;;5.80;99.90;;;;;;5058875;28;20491;-67
2021/12/05 18:15:49;;;;;;;6.75;5.10;;;5.80;99.90;;;;;;5052786;28;20017;-67
2021/12/05 18:18:17;;;;;;;6.63;5.25;;;5.80;99.90;;;;;;5062548;28;20029;-68
2021/12/05 18:20:43;;;;;;;7.47;4.82;;;5.80;99.90;;;;;;5071924;28;20021;-67
2021/12/05 18:23:24;;;;;;;6.57;4.50;;;5.80;99.90;;;;;;5064377;28;20025;-67
2021/12/05 18:25:49;;;;;;;7.40;5.80;;;5.80;99.90;;;;;;5068008;28;20601;-67
2021/12/05 18:28:15;;;;;;;8.98;5.43;;;5.70;99.90;;;;;;5064970;28;20025;-67
2021/12/05 18:30:41;;;;;;;8.77;7.05;;;5.70;99.90;;;;;;5059588;28;20056;-68
2021/12/05 18:33:08;;;;;;;9.52;6.25;;;5.70;99.90;;;;;;5062709;28;21056;-67
2021/12/05 18:35:36;;;;;;;8.98;6.20;;;5.70;99.90;;;;;;5050451;28;20154;-67
2021/12/05 18:38:06;;;;;;;7.32;6.50;;;5.70;99.90;;;;;;5067579;28;20028;-67
2021/12/05 18:40:33;;;;;;;9.27;7.15;;;5.70;99.90;;;;;;5065111;28;20028;-67
2021/12/05 18:42:59;;;;;;;9.00;6.65;;;5.70;99.90;;;;;;5065319;28;20446;-67
2021/12/05 18:45:29;;;;;;;8.38;6.43;;;5.70;99.90;;;;;;5053937;28;20408;-67
2021/12/05 18:47:55;;;;;;;;;;;5.70;99.90;;;;;;5062502;28;20051;-67
2021/12/05 18:50:20;;;;;;;13.45;8.82;;;5.60;99.90;;;;;;5061151;28;20258;-67
2021/12/05 18:52:46;;;;;;;11.75;8.55;;;5.60;99.90;;;;;;5054399;28;20032;-67
2021/12/05 18:55:17;;;;;;;10.40;8.50;;;5.60;99.90;;;;;;5053278;28;20021;-67